createdAt,value
2023-05-18T00:01:25.535Z,12.44
2023-05-18T00:03:54.217Z,12.39
2023-05-18T00:06:22.486Z,12.29
2023-05-18T00:08:49.260Z,12.31
2023-05-18T00:11:16.223Z,12.15
2023-05-18T00:13:43.288Z,12.19
2023-05-18T00:16:12.017Z,12.24
2023-05-18T00:18:38.727Z,12.17
2023-05-18T00:21:06.374Z,12.08
2023-05-18T00:23:33.246Z,12.19
2023-05-18T00:26:01.430Z,12.09
2023-05-18T00:28:29.390Z,12.07
2023-05-18T00:30:56.872Z,11.88
2023-05-18T00:33:23.734Z,11.98
2023-05-18T00:35:50.602Z,11.84
2023-05-18T00:38:17.916Z,11.90
2023-05-18T00:40:44.773Z,11.82
2023-05-18T00:43:12.483Z,11.96
2023-05-18T00:45:39.957Z,11.87
2023-05-18T00:48:07.312Z,11.91
2023-05-18T00:50:34.908Z,11.82
2023-05-18T00:53:01.795Z,11.86
2023-05-18T00:55:29.174Z,11.78
2023-05-18T00:58:02.391Z,11.70
2023-05-18T01:00:29.605Z,11.82
2023-05-18T01:02:57.330Z,11.77
2023-05-18T01:05:24.341Z,11.71
2023-05-18T01:07:51.304Z,11.62
2023-05-18T01:10:20.644Z,11.66
2023-05-18T01:12:57.297Z,11.75
2023-05-18T01:15:34.832Z,11.71
2023-05-18T01:18:05.349Z,11.68
2023-05-18T01:20:45.975Z,11.55
2023-05-18T01:23:45.580Z,11.55
2023-05-18T01:26:17.097Z,11.53
2023-05-18T01:28:46.768Z,11.50
2023-05-18T01:31:16.264Z,11.48
2023-05-18T01:33:44.470Z,11.44
2023-05-18T01:36:11.575Z,11.39
2023-05-18T01:38:41.050Z,11.37
2023-05-18T01:41:18.156Z,11.41
2023-05-18T01:44:18.525Z,11.49
2023-05-18T01:46:54.735Z,11.45
2023-05-18T01:49:24.511Z,11.45
2023-05-18T01:51:53.401Z,11.42
2023-05-18T01:54:22.775Z,11.40
2023-05-18T01:56:52.097Z,11.33
2023-05-18T01:59:19.076Z,11.29
2023-05-18T02:01:45.893Z,11.06
2023-05-18T02:04:12.786Z,11.04
2023-05-18T02:06:39.758Z,11.30
2023-05-18T02:09:09.009Z,11.24
2023-05-18T02:11:35.893Z,11.17
2023-05-18T02:14:02.944Z,11.17
2023-05-18T02:16:29.787Z,11.09
2023-05-18T02:18:58.113Z,11.07
2023-05-18T02:21:25.968Z,11.05
2023-05-18T02:23:52.700Z,11.07
2023-05-18T02:26:19.474Z,11.03
2023-05-18T02:28:53.032Z,11.20
2023-05-18T02:31:19.918Z,11.22
2023-05-18T02:33:46.693Z,11.09
2023-05-18T02:36:14.386Z,11.06
2023-05-18T02:38:43.841Z,11.03
2023-05-18T02:41:12.082Z,11.03
2023-05-18T02:43:39.019Z,11.03
2023-05-18T02:46:07.557Z,10.91
2023-05-18T02:48:34.525Z,11.11
2023-05-18T02:51:01.263Z,11.03
2023-05-18T02:53:27.982Z,10.97
2023-05-18T02:56:03.287Z,10.87
2023-05-18T02:58:39.134Z,10.78
2023-05-18T03:01:39.986Z,10.83
2023-05-18T03:04:07.347Z,10.88
2023-05-18T03:06:38.340Z,10.94
2023-05-18T03:09:05.200Z,11.00
2023-05-18T03:11:36.687Z,10.95
2023-05-18T03:14:03.704Z,10.91
2023-05-18T03:16:30.533Z,10.78
2023-05-18T03:19:02.297Z,10.87
2023-05-18T03:21:36.110Z,10.84
2023-05-18T03:24:03.594Z,10.88
2023-05-18T03:26:32.067Z,10.80
2023-05-18T03:28:59.556Z,10.62
2023-05-18T03:31:27.127Z,10.67
2023-05-18T03:33:56.257Z,10.73
2023-05-18T03:36:25.336Z,10.62
2023-05-18T03:38:52.833Z,10.67
2023-05-18T03:41:19.973Z,10.60
2023-05-18T03:43:46.729Z,10.67
2023-05-18T03:46:13.697Z,10.65
2023-05-18T03:48:40.685Z,10.51
2023-05-18T03:51:07.763Z,10.61
2023-05-18T03:53:36.237Z,10.57
2023-05-18T03:56:03.104Z,10.50
2023-05-18T03:58:30.128Z,10.50
2023-05-18T04:00:58.938Z,10.58
2023-05-18T04:03:27.090Z,10.64
2023-05-18T04:05:55.666Z,10.42
2023-05-18T04:08:25.461Z,10.47
2023-05-18T04:10:52.553Z,10.58
2023-05-18T04:13:19.256Z,10.63
2023-05-18T04:15:46.001Z,10.63
2023-05-18T04:18:13.683Z,10.56
2023-05-18T04:20:42.609Z,10.54
2023-05-18T04:23:10.111Z,10.59
2023-05-18T04:25:39.300Z,10.69
2023-05-18T04:28:07.272Z,10.47
2023-05-18T04:30:35.405Z,10.48
2023-05-18T04:33:04.116Z,10.30
2023-05-18T04:35:31.982Z,10.53
2023-05-18T04:37:58.945Z,10.48
2023-05-18T04:40:25.897Z,10.59
2023-05-18T04:42:52.950Z,10.48
2023-05-18T04:45:26.101Z,10.58
2023-05-18T04:47:54.760Z,10.58
2023-05-18T04:50:26.251Z,10.61
2023-05-18T04:52:53.997Z,10.73
2023-05-18T04:55:27.491Z,10.77
2023-05-18T04:58:03.107Z,10.91
2023-05-18T05:00:30.995Z,11.04
2023-05-18T05:02:59.355Z,10.80
2023-05-18T05:05:28.567Z,10.98
2023-05-18T05:07:57.492Z,11.03
2023-05-18T05:10:25.508Z,11.21
2023-05-18T05:12:52.677Z,11.13
2023-05-18T05:15:20.398Z,11.07
2023-05-18T05:17:49.888Z,11.10
2023-05-18T05:20:17.237Z,11.22
2023-05-18T05:22:44.119Z,11.21
2023-05-18T05:25:13.129Z,11.18
2023-05-18T05:27:39.824Z,11.42
2023-05-18T05:30:07.430Z,11.39
2023-05-18T05:32:36.716Z,11.35
2023-05-18T05:35:05.362Z,11.65
2023-05-18T05:37:32.675Z,11.81
2023-05-18T05:39:59.507Z,11.94
2023-05-18T05:42:27.375Z,12.05
2023-05-18T05:44:54.133Z,12.20
2023-05-18T05:47:21.537Z,12.35
2023-05-18T05:49:49.379Z,12.52
2023-05-18T05:52:16.692Z,12.49
2023-05-18T05:54:43.549Z,12.60
2023-05-18T05:57:11.435Z,12.56
2023-05-18T05:59:38.394Z,12.66
2023-05-18T06:02:05.630Z,12.81
2023-05-18T06:04:33.103Z,13.08
2023-05-18T06:07:00.823Z,13.23
2023-05-18T06:09:28.932Z,13.11
2023-05-18T06:11:56.595Z,13.25
2023-05-18T06:14:25.013Z,13.10
2023-05-18T06:16:53.435Z,13.46
2023-05-18T06:19:20.388Z,13.62
2023-05-18T06:21:47.244Z,13.86
2023-05-18T06:24:14.386Z,13.87
2023-05-18T06:26:53.646Z,14.08
2023-05-18T06:29:36.428Z,14.06
2023-05-18T06:32:13.597Z,14.25
2023-05-18T06:34:45.719Z,14.11
2023-05-18T06:37:12.994Z,14.17
2023-05-18T06:39:40.308Z,14.09
2023-05-18T06:42:07.551Z,14.48
2023-05-18T06:44:35.870Z,14.56
2023-05-18T06:47:07.980Z,14.52
2023-05-18T06:49:34.784Z,14.66
2023-05-18T06:52:01.475Z,14.66
2023-05-18T06:54:32.089Z,14.45
2023-05-18T06:56:59.883Z,14.60
2023-05-18T06:59:26.654Z,14.71
2023-05-18T07:01:54.181Z,15.03
2023-05-18T07:04:21.303Z,15.04
2023-05-18T07:06:48.796Z,15.01
2023-05-18T07:09:15.729Z,15.09
2023-05-18T07:11:42.685Z,15.42
2023-05-18T07:14:09.864Z,15.43
2023-05-18T07:16:37.065Z,15.51
2023-05-18T07:19:04.954Z,15.58
2023-05-18T07:21:31.924Z,15.58
2023-05-18T07:23:58.986Z,15.69
2023-05-18T07:26:26.154Z,15.68
2023-05-18T07:28:53.019Z,15.78
2023-05-18T07:31:21.757Z,15.87
2023-05-18T07:33:49.824Z,15.91
2023-05-18T07:36:16.914Z,16.04
2023-05-18T07:38:44.114Z,15.97
2023-05-18T07:41:11.006Z,15.63
2023-05-18T07:43:38.001Z,15.65
2023-05-18T07:46:04.810Z,15.75
2023-05-18T07:48:31.576Z,15.75
2023-05-18T07:50:58.440Z,16.03
2023-05-18T07:53:25.239Z,16.25
2023-05-18T07:55:53.076Z,16.27
2023-05-18T07:58:19.955Z,16.57
2023-05-18T08:00:46.803Z,16.19
2023-05-18T08:03:13.687Z,16.57
2023-05-18T08:05:40.753Z,16.65
2023-05-18T08:08:08.180Z,16.68
2023-05-18T08:10:35.025Z,16.89
2023-05-18T08:13:01.887Z,17.05
2023-05-18T08:15:29.189Z,17.12
2023-05-18T08:17:57.102Z,16.98
2023-05-18T08:20:26.185Z,17.04
2023-05-18T08:22:52.962Z,17.03
2023-05-18T08:25:19.870Z,17.15
2023-05-18T08:27:46.651Z,17.15
2023-05-18T08:30:13.943Z,17.15
2023-05-18T08:32:40.943Z,17.28
2023-05-18T08:35:09.170Z,17.10
2023-05-18T08:37:37.251Z,17.23
2023-05-18T08:40:07.987Z,17.25
2023-05-18T08:42:49.817Z,17.45
2023-05-18T08:45:41.600Z,17.47
2023-05-18T08:48:11.497Z,17.26
2023-05-18T08:50:41.762Z,17.23
2023-05-18T08:53:10.673Z,17.25
2023-05-18T08:55:37.928Z,17.24
2023-05-18T08:58:09.182Z,17.47
2023-05-18T09:00:36.925Z,17.47
2023-05-18T09:03:05.311Z,17.70
2023-05-18T09:05:32.549Z,17.34
2023-05-18T09:08:00.536Z,17.51
2023-05-18T09:10:28.048Z,17.75
2023-05-18T09:12:56.202Z,17.56
2023-05-18T09:15:25.289Z,17.50
2023-05-18T09:17:52.493Z,17.52
2023-05-18T09:20:19.953Z,17.77
2023-05-18T09:22:49.374Z,17.86
2023-05-18T09:25:17.662Z,18.02
2023-05-18T09:27:44.457Z,17.98
2023-05-18T09:30:11.973Z,18.21
2023-05-18T09:32:39.164Z,18.19
2023-05-18T09:35:07.543Z,18.54
2023-05-18T09:37:35.286Z,18.19
2023-05-18T09:40:05.345Z,18.39
2023-05-18T09:42:44.095Z,18.49
2023-05-18T09:45:25.586Z,18.56
2023-05-18T09:47:53.628Z,18.56
2023-05-18T09:50:21.244Z,18.54
2023-05-18T09:52:49.314Z,18.20
2023-05-18T09:55:17.525Z,18.16
2023-05-18T09:57:46.425Z,18.25
2023-05-18T10:00:19.165Z,18.50
2023-05-18T10:02:52.640Z,18.58
2023-05-18T10:05:20.573Z,18.75
2023-05-18T10:07:48.441Z,18.66
2023-05-18T10:10:19.541Z,18.73
2023-05-18T10:12:47.980Z,18.92
2023-05-18T10:15:16.329Z,18.83
2023-05-18T10:17:45.223Z,18.31
2023-05-18T10:20:15.893Z,17.94
2023-05-18T10:22:46.017Z,18.19
2023-05-18T10:25:22.619Z,18.22
2023-05-18T10:27:55.493Z,18.43
2023-05-18T10:30:22.982Z,18.60
2023-05-18T10:32:51.351Z,18.72
2023-05-18T10:35:18.781Z,18.70
2023-05-18T10:37:50.122Z,18.63
2023-05-18T10:40:17.649Z,18.56
2023-05-18T10:42:46.306Z,18.82
2023-05-18T10:45:15.596Z,18.80
2023-05-18T10:47:44.171Z,18.80
2023-05-18T10:50:11.677Z,18.70
2023-05-18T10:52:38.442Z,18.43
2023-05-18T10:55:06.844Z,18.08
2023-05-18T10:57:40.771Z,17.83
2023-05-18T11:00:09.394Z,18.00
2023-05-18T11:02:42.201Z,17.94
2023-05-18T11:05:12.437Z,17.84
2023-05-18T11:07:39.261Z,17.98
2023-05-18T11:10:12.415Z,17.90
2023-05-18T11:12:40.784Z,17.98
2023-05-18T11:15:08.260Z,18.07
2023-05-18T11:17:34.938Z,18.17
2023-05-18T11:20:07.871Z,17.78
2023-05-18T11:22:56.756Z,17.76
2023-05-18T11:25:26.156Z,17.84
2023-05-18T11:27:53.880Z,17.98
2023-05-18T11:30:44.961Z,18.05
2023-05-18T11:33:14.485Z,17.93
2023-05-18T11:36:04.553Z,17.79
2023-05-18T11:38:55.147Z,17.85
2023-05-18T11:41:35.254Z,17.70
2023-05-18T11:44:16.837Z,17.78
2023-05-18T11:46:56.076Z,17.74
2023-05-18T11:49:28.429Z,17.82
2023-05-18T11:52:18.665Z,17.68
2023-05-18T11:54:56.398Z,17.66
2023-05-18T11:57:34.807Z,17.63
2023-05-18T12:00:10.228Z,17.64
2023-05-18T12:02:43.827Z,17.73
2023-05-18T12:05:10.793Z,17.79
2023-05-18T12:07:39.235Z,17.88
2023-05-18T12:10:10.955Z,17.84
2023-05-18T12:12:38.140Z,17.85
2023-05-18T12:15:06.863Z,17.86
2023-05-18T12:17:43.106Z,17.70
2023-05-18T12:20:14.568Z,17.65
2023-05-18T12:22:45.201Z,17.79
2023-05-18T12:25:12.039Z,17.92
2023-05-18T12:27:40.681Z,17.84
2023-05-18T12:30:14.602Z,17.78
2023-05-18T12:32:57.641Z,17.77
2023-05-18T12:35:25.802Z,17.85
2023-05-18T12:37:55.925Z,18.02
2023-05-18T12:40:23.256Z,18.02
2023-05-18T12:42:56.850Z,17.95
2023-05-18T12:45:27.801Z,17.92
2023-05-18T12:47:55.508Z,18.00
2023-05-18T12:50:27.664Z,18.09
2023-05-18T12:52:56.153Z,18.11
2023-05-18T12:55:25.004Z,18.21
2023-05-18T12:58:15.864Z,18.33
2023-05-18T13:00:47.805Z,18.29
2023-05-18T13:03:16.872Z,18.34
2023-05-18T13:05:46.119Z,18.47
2023-05-18T13:08:19.112Z,18.60
2023-05-18T13:10:46.247Z,18.69
2023-05-18T13:13:16.660Z,18.69
2023-05-18T13:15:44.097Z,18.61
2023-05-18T13:18:11.779Z,18.47
2023-05-18T13:20:45.133Z,18.40
2023-05-18T13:23:14.017Z,18.56
2023-05-18T13:25:41.286Z,18.76
2023-05-18T13:28:10.560Z,18.91
2023-05-18T13:30:38.298Z,18.78
2023-05-18T13:33:08.159Z,18.73
2023-05-18T13:35:40.301Z,18.82
2023-05-18T13:38:06.844Z,18.78
2023-05-18T13:40:33.455Z,18.60
2023-05-18T13:43:00.126Z,18.62
2023-05-18T13:45:26.652Z,18.84
2023-05-18T13:47:56.900Z,18.97
2023-05-18T13:50:23.908Z,19.16
2023-05-18T13:52:50.586Z,19.38
2023-05-18T13:55:17.138Z,19.55
2023-05-18T13:57:44.971Z,19.73
2023-05-18T14:00:13.457Z,19.52
2023-05-18T14:02:41.540Z,19.60
2023-05-18T14:05:09.665Z,19.74
2023-05-18T14:07:41.488Z,19.59
2023-05-18T14:10:09.965Z,19.81
2023-05-18T14:12:37.236Z,20.03
2023-05-18T14:15:05.673Z,20.06
2023-05-18T14:17:35.521Z,19.67
2023-05-18T14:20:02.721Z,19.52
2023-05-18T14:22:30.584Z,19.88
2023-05-18T14:24:57.590Z,20.08
2023-05-18T14:27:24.182Z,20.28
2023-05-18T14:29:51.132Z,20.46
2023-05-18T14:32:20.686Z,20.57
2023-05-18T14:34:51.561Z,20.56
2023-05-18T14:37:18.866Z,20.66
2023-05-18T14:39:45.726Z,20.90
2023-05-18T14:42:12.251Z,21.11
2023-05-18T14:44:38.810Z,21.32
2023-05-18T14:47:05.728Z,21.48
2023-05-18T14:49:32.328Z,22.14
2023-05-18T14:51:58.931Z,23.16
2023-05-18T14:54:25.678Z,24.14
2023-05-18T14:56:52.342Z,25.58
2023-05-18T14:59:18.970Z,26.47
2023-05-18T15:01:45.694Z,25.06
2023-05-18T15:04:14.570Z,24.26
2023-05-18T15:06:41.439Z,26.20
2023-05-18T15:09:08.362Z,28.32
2023-05-18T15:11:34.968Z,30.08
2023-05-18T15:14:01.540Z,30.89
2023-05-18T15:16:28.249Z,30.86
2023-05-18T15:18:55.036Z,30.20
2023-05-18T15:21:21.775Z,29.91
2023-05-18T15:23:48.311Z,28.64
2023-05-18T15:26:14.957Z,27.91
2023-05-18T15:28:43.369Z,29.22
2023-05-18T15:31:09.909Z,30.11
2023-05-18T15:33:41.819Z,29.26
2023-05-18T15:36:08.852Z,29.23
2023-05-18T15:38:35.751Z,27.62
2023-05-18T15:41:02.343Z,26.04
2023-05-18T15:43:30.412Z,24.96
2023-05-18T15:45:58.108Z,24.51
2023-05-18T15:48:24.794Z,23.75
2023-05-18T15:50:51.375Z,23.66
2023-05-18T15:53:17.929Z,23.47
2023-05-18T15:55:44.486Z,23.46
2023-05-18T15:58:12.940Z,23.52
2023-05-18T16:00:39.520Z,23.40
2023-05-18T16:03:06.247Z,23.00
2023-05-18T16:05:32.915Z,22.79
2023-05-18T16:07:59.729Z,22.73
2023-05-18T16:10:26.238Z,22.61
2023-05-18T16:12:52.772Z,22.50
2023-05-18T16:15:24.154Z,22.22
2023-05-18T16:17:50.851Z,22.05
2023-05-18T16:20:18.459Z,21.81
2023-05-18T16:22:46.718Z,21.71
2023-05-18T16:25:13.351Z,21.60
2023-05-18T16:27:39.918Z,21.44
2023-05-18T16:30:07.253Z,21.38
2023-05-18T16:32:33.853Z,21.35
2023-05-18T16:35:01.027Z,21.49
2023-05-18T16:37:27.977Z,21.44
2023-05-18T16:39:54.587Z,21.33
2023-05-18T16:42:22.775Z,21.18
2023-05-18T16:44:49.355Z,21.06
2023-05-18T16:47:16.058Z,21.10
2023-05-18T16:49:45.266Z,20.96
2023-05-18T16:52:11.861Z,20.70
2023-05-18T16:54:38.426Z,20.44
2023-05-18T16:57:05.216Z,20.19
2023-05-18T16:59:34.221Z,20.12
2023-05-18T17:02:01.431Z,20.02
2023-05-18T17:04:28.119Z,19.97
2023-05-18T17:06:54.771Z,19.98
2023-05-18T17:09:21.310Z,19.85
2023-05-18T17:11:48.381Z,19.83
2023-05-18T17:14:15.084Z,19.91
2023-05-18T17:16:41.701Z,19.81
2023-05-18T17:19:08.364Z,19.80
2023-05-18T17:21:35.058Z,19.74
2023-05-18T17:24:01.628Z,19.71
2023-05-18T17:26:30.606Z,19.73
2023-05-18T17:28:57.374Z,19.59
2023-05-18T17:31:24.077Z,19.51
2023-05-18T17:33:50.841Z,19.56
2023-05-18T17:36:18.309Z,19.46
2023-05-18T17:38:45.163Z,19.44
2023-05-18T17:41:11.943Z,19.49
2023-05-18T17:43:38.670Z,19.44
2023-05-18T17:46:05.391Z,19.49
2023-05-18T17:48:31.998Z,19.46
2023-05-18T17:50:58.807Z,19.56
2023-05-18T17:53:25.307Z,19.54
2023-05-18T17:55:52.649Z,19.49
2023-05-18T17:58:19.692Z,19.42
2023-05-18T18:00:46.371Z,19.22
2023-05-18T18:03:13.317Z,18.99
2023-05-18T18:05:40.242Z,18.96
2023-05-18T18:08:07.122Z,18.94
2023-05-18T18:10:34.682Z,18.97
2023-05-18T18:13:03.315Z,18.93
2023-05-18T18:15:30.096Z,18.93
2023-05-18T18:18:00.356Z,18.94
2023-05-18T18:20:27.260Z,18.97
2023-05-18T18:22:53.980Z,18.88
2023-05-18T18:25:20.741Z,18.91
2023-05-18T18:27:47.448Z,18.78
2023-05-18T18:30:14.773Z,18.74
2023-05-18T18:32:41.537Z,18.76
2023-05-18T18:35:09.029Z,18.68
2023-05-18T18:37:36.132Z,18.64
2023-05-18T18:40:03.012Z,18.58
2023-05-18T18:42:30.913Z,18.63
2023-05-18T18:44:57.696Z,18.52
2023-05-18T18:47:25.023Z,18.42
2023-05-18T18:49:51.810Z,18.30
2023-05-18T18:52:18.555Z,18.40
2023-05-18T18:54:45.366Z,18.27
2023-05-18T18:57:12.329Z,18.16
2023-05-18T18:59:39.373Z,18.10
2023-05-18T19:02:06.361Z,18.19
2023-05-18T19:04:33.253Z,18.13
2023-05-18T19:07:02.918Z,18.12
2023-05-18T19:09:32.676Z,17.98
2023-05-18T19:11:59.456Z,17.98
2023-05-18T19:14:26.474Z,17.96
2023-05-18T19:16:53.686Z,17.93
2023-05-18T19:19:20.481Z,17.78
2023-05-18T19:21:47.200Z,17.72
2023-05-18T19:24:13.980Z,17.83
2023-05-18T19:26:40.722Z,17.69
2023-05-18T19:29:07.389Z,17.67
2023-05-18T19:31:35.756Z,17.78
2023-05-18T19:34:02.770Z,17.75
2023-05-18T19:36:29.517Z,17.75
2023-05-18T19:38:56.281Z,17.67
2023-05-18T19:41:24.622Z,17.64
2023-05-18T19:43:51.692Z,17.51
2023-05-18T19:46:19.158Z,17.53
2023-05-18T19:48:46.652Z,17.43
2023-05-18T19:51:13.329Z,17.48
2023-05-18T19:53:40.279Z,17.55
2023-05-18T19:56:06.977Z,17.32
2023-05-18T19:58:33.727Z,17.32
2023-05-18T20:01:00.622Z,17.36
2023-05-18T20:03:27.623Z,17.36
2023-05-18T20:05:56.048Z,17.26
2023-05-18T20:08:22.888Z,17.20
2023-05-18T20:10:49.822Z,17.21
2023-05-18T20:13:16.632Z,17.10
2023-05-18T20:15:43.756Z,17.21
2023-05-18T20:18:10.751Z,17.18
2023-05-18T20:20:37.645Z,17.14
2023-05-18T20:23:06.737Z,17.03
2023-05-18T20:25:35.191Z,17.12
2023-05-18T20:28:03.531Z,17.11
2023-05-18T20:30:30.706Z,17.01
2023-05-18T20:33:03.656Z,16.95
2023-05-18T20:35:30.564Z,16.98
2023-05-18T20:37:59.649Z,16.80
2023-05-18T20:40:27.803Z,16.86
2023-05-18T20:42:54.542Z,16.80
2023-05-18T20:45:22.706Z,16.78
2023-05-18T20:47:52.867Z,16.67
2023-05-18T20:50:21.121Z,16.69
2023-05-18T20:52:47.963Z,16.73
2023-05-18T20:55:14.914Z,16.65
2023-05-18T20:57:46.131Z,16.59
2023-05-18T21:00:13.300Z,16.62
2023-05-18T21:02:41.574Z,16.63
2023-05-18T21:05:08.853Z,16.60
2023-05-18T21:07:37.827Z,16.50
2023-05-18T21:10:05.101Z,16.41
2023-05-18T21:12:32.618Z,16.47
2023-05-18T21:14:59.385Z,16.43
2023-05-18T21:17:26.280Z,16.26
2023-05-18T21:19:53.150Z,16.28
2023-05-18T21:22:19.962Z,16.26
2023-05-18T21:24:46.624Z,16.13
2023-05-18T21:27:13.444Z,16.20
2023-05-18T21:29:40.217Z,16.17
2023-05-18T21:32:07.172Z,16.12
2023-05-18T21:34:33.964Z,16.13
2023-05-18T21:37:01.193Z,16.15
2023-05-18T21:39:27.934Z,16.20
2023-05-18T21:41:54.779Z,16.12
2023-05-18T21:44:21.473Z,16.19
2023-05-18T21:46:48.354Z,16.00
2023-05-18T21:49:15.032Z,16.07
2023-05-18T21:51:41.678Z,16.09
2023-05-18T21:54:08.457Z,15.94
2023-05-18T21:56:36.696Z,15.91
2023-05-18T21:59:03.512Z,15.93
2023-05-18T22:01:30.393Z,16.00
2023-05-18T22:03:57.220Z,15.95
2023-05-18T22:06:24.050Z,15.74
2023-05-18T22:08:51.481Z,15.63
2023-05-18T22:11:18.289Z,15.71
2023-05-18T22:13:44.971Z,15.67
2023-05-18T22:16:11.959Z,15.65
2023-05-18T22:18:38.798Z,15.82
2023-05-18T22:21:05.705Z,15.83
2023-05-18T22:23:32.372Z,15.85
2023-05-18T22:25:59.052Z,15.69
2023-05-18T22:28:25.932Z,15.58
2023-05-18T22:30:52.773Z,15.76
2023-05-18T22:33:20.948Z,15.71
2023-05-18T22:35:50.662Z,15.48
2023-05-18T22:38:17.902Z,15.59
2023-05-18T22:40:45.411Z,15.52
2023-05-18T22:43:12.336Z,15.64
2023-05-18T22:45:39.165Z,15.53
2023-05-18T22:48:06.315Z,15.69
2023-05-18T22:50:33.407Z,15.50
2023-05-18T22:53:02.301Z,15.33
2023-05-18T22:55:29.110Z,15.65
2023-05-18T22:57:55.805Z,15.71
2023-05-18T23:00:22.882Z,15.56
2023-05-18T23:02:49.674Z,15.52
2023-05-18T23:05:17.169Z,15.59
2023-05-18T23:07:44.126Z,15.50
2023-05-18T23:10:12.164Z,15.55
2023-05-18T23:12:39.578Z,15.55
2023-05-18T23:15:07.413Z,15.56
2023-05-18T23:17:54.808Z,15.48
2023-05-18T23:20:22.864Z,15.55
2023-05-18T23:22:49.590Z,15.44
2023-05-18T23:25:16.522Z,15.60
2023-05-18T23:27:44.820Z,15.61
2023-05-18T23:30:11.825Z,15.55
2023-05-18T23:32:39.193Z,15.63
2023-05-18T23:35:06.590Z,15.48
2023-05-18T23:37:35.081Z,15.42
2023-05-18T23:40:04.659Z,15.38
2023-05-18T23:42:33.451Z,15.30
2023-05-18T23:45:00.735Z,15.14
2023-05-18T23:47:27.702Z,15.04
2023-05-18T23:49:54.893Z,14.99
2023-05-18T23:52:24.873Z,15.08
2023-05-18T23:54:55.501Z,15.01
2023-05-18T23:57:25.465Z,14.90
2023-05-18T23:59:52.472Z,14.77
